Time;durP1;ratioP1;P1;durP2;ratioP2;P2;SDS_P1;SDS_P2;PMS_P1;PMS_P2;Temp;Humidity;BMP_temperature;BMP_pressure;BME280_temperature;BME280_humidity;BME280_pressure;Samples;Min_cycle;Max_cycle;Signal;HPM_P1;HPM_P2
2023/01/18 00:01:37;;;;;;;1.77;1.67;;;;;;;;;;5062720;28;20180;-80
2023/01/18 00:04:03;;;;;;;2.00;1.80;;;;;;;;;;5060903;28;20207;-79
2023/01/18 00:06:28;;;;;;;2.40;2.13;;;;;;;;;;5066473;28;20196;-80
2023/01/18 00:08:54;;;;;;;2.13;1.93;;;;;;;;;;5057990;28;20223;-79
2023/01/18 00:11:19;;;;;;;2.40;2.17;;;;;;;;;;5062140;28;20208;-79
2023/01/18 00:13:45;;;;;;;2.40;2.20;;;;;;;;;;5068570;28;20177;-80
2023/01/18 00:16:11;;;;;;;2.73;2.23;;;;;;;;;;5066707;28;20188;-80
2023/01/18 00:18:37;;;;;;;2.63;2.27;;;;;;;;;;5066745;28;20264;-80
2023/01/18 00:21:04;;;;;;;2.87;2.40;;;;;;;;;;5068056;28;20276;-79
2023/01/18 00:23:29;;;;;;;2.90;2.50;;;;;;;;;;5066207;28;20323;-80
2023/01/18 00:25:58;;;;;;;3.07;2.17;;;;;;;;;;5060059;28;20267;-80
2023/01/18 00:28:23;;;;;;;1.90;1.80;;;;;;;;;;5065107;28;20229;-80
2023/01/18 00:30:48;;;;;;;2.63;2.43;;;;;;;;;;5071341;28;20204;-80
2023/01/18 00:33:14;;;;;;;4.13;2.37;;;;;;;;;;5066152;28;20284;-80
2023/01/18 00:35:39;;;;;;;2.27;2.07;;;;;;;;;;5085727;28;20197;-80
2023/01/18 00:38:05;;;;;;;2.47;2.10;;;;;;;;;;5070053;28;20227;-79
2023/01/18 00:40:30;;;;;;;2.40;2.10;;;;;;;;;;5065778;28;20240;-80
2023/01/18 00:45:40;;;;;;;2.17;1.97;;;;;;;;;;5072689;28;20206;-80
2023/01/18 00:48:05;;;;;;;2.20;2.00;;;;;;;;;;5067026;28;20296;-80
2023/01/18 00:50:30;;;;;;;2.30;2.10;;;;;;;;;;5077452;28;20318;-80
2023/01/18 00:52:57;;;;;;;2.60;2.40;;;;;;;;;;5071287;28;20184;-80
2023/01/18 00:55:22;;;;;;;1.87;1.77;;;;;;;;;;5078698;28;20241;-80
2023/01/18 00:57:47;;;;;;;2.43;2.23;;;;;;;;;;5071127;28;20191;-80
2023/01/18 01:00:15;;;;;;;2.60;2.40;;;;;;;;;;5070905;28;20273;-80
2023/01/18 01:02:41;;;;;;;2.47;2.27;;;;;;;;;;5080118;28;20173;-80
2023/01/18 01:07:58;;;;;;;2.60;2.40;;;;;;;;;;5071334;28;20243;-80
2023/01/18 01:10:23;;;;;;;3.27;2.50;;;;;;;;;;5068493;28;20224;-80
2023/01/18 01:26:30;;;;;;;2.43;2.23;;;;;;;;;;5066675;28;20245;-80
2023/01/18 01:28:55;;;;;;;2.60;2.40;;;;;;;;;;5068716;28;20291;-80
2023/01/18 01:31:20;;;;;;;2.50;2.30;;;;;;;;;;5069954;28;20183;-80
2023/01/18 01:33:47;;;;;;;3.40;3.10;;;;;;;;;;5070917;28;20168;-80
2023/01/18 01:36:14;;;;;;;3.33;2.23;;;;;;;;;;5066979;28;20211;-80
2023/01/18 01:38:42;;;;;;;5.27;2.93;;;;;;;;;;5072027;28;20316;-80
2023/01/18 01:41:12;;;;;;;4.33;3.73;;;;;;;;;;5071801;28;20220;-80
2023/01/18 01:43:39;;;;;;;7.53;3.33;;;;;;;;;;5077151;28;20209;-80
2023/01/18 01:46:09;;;;;;;3.77;2.93;;;;;;;;;;5080381;28;20186;-80
2023/01/18 01:48:34;;;;;;;6.70;4.37;;;;;;;;;;5065389;28;20288;-80
2023/01/18 01:50:59;;;;;;;4.37;3.73;;;;;;;;;;5071756;28;20264;-80
2023/01/18 01:53:25;;;;;;;4.10;3.50;;;;;;;;;;5075185;28;20184;-80
2023/01/18 01:55:50;;;;;;;4.37;3.60;;;;;;;;;;5073790;28;20249;-80
2023/01/18 01:58:18;;;;;;;11.60;4.57;;;;;;;;;;5069770;28;20208;-80
2023/01/18 02:00:44;;;;;;;4.53;4.13;;;;;;;;;;5065663;28;20174;-80
2023/01/18 02:03:11;;;;;;;6.03;4.53;;;;;;;;;;5064865;28;20196;-80
2023/01/18 02:05:40;;;;;;;6.10;3.67;;;;;;;;;;5078874;28;20195;-80
2023/01/18 02:08:10;;;;;;;3.93;3.27;;;;;;;;;;5068633;28;20260;-80
2023/01/18 02:10:35;;;;;;;4.03;3.63;;;;;;;;;;5065537;28;20170;-80
2023/01/18 02:13:01;;;;;;;3.70;3.30;;;;;;;;;;5064420;28;20264;-80
2023/01/18 02:15:29;;;;;;;4.70;3.70;;;;;;;;;;5070956;28;20181;-80
2023/01/18 02:18:13;;;;;;;3.40;2.77;;;;;;;;;;5065592;28;20189;-80
2023/01/18 02:20:47;;;;;;;5.17;3.47;;;;;;;;;;5064564;28;20184;-80
2023/01/18 02:23:28;;;;;;;3.77;2.93;;;;;;;;;;5057814;28;20180;-80
2023/01/18 02:26:02;;;;;;;3.77;3.23;;;;;;;;;;5066923;28;20217;-80
2023/01/18 02:28:38;;;;;;;3.13;2.83;;;;;;;;;;5068779;28;20195;-80
2023/01/18 02:31:06;;;;;;;4.23;3.30;;;;;;;;;;5084009;28;20172;-80
2023/01/18 02:33:38;;;;;;;3.83;3.43;;;;;;;;;;5080122;28;20211;-80
2023/01/18 02:36:04;;;;;;;1.17;0.67;;;;;;;;;;5070261;28;20194;-80
2023/01/18 02:38:32;;;;;;;3.70;3.30;;;;;;;;;;5065223;28;20317;-80
2023/01/18 02:41:00;;;;;;;2.90;2.60;;;;;;;;;;5059284;28;20216;-80
2023/01/18 02:46:29;;;;;;;4.90;3.30;;;;;;;;;;5068281;28;20226;-80
2023/01/18 02:48:56;;;;;;;3.27;2.60;;;;;;;;;;5060404;28;20265;-80
2023/01/18 02:51:21;;;;;;;4.37;3.93;;;;;;;;;;5062409;28;20254;-80
2023/01/18 02:53:46;;;;;;;15.23;5.93;;;;;;;;;;5069841;28;20210;-80
2023/01/18 02:56:14;;;;;;;7.43;4.13;;;;;;;;;;5061424;28;20170;-80
2023/01/18 02:58:43;;;;;;;5.00;3.53;;;;;;;;;;5063570;28;20260;-79
2023/01/18 03:01:18;;;;;;;17.67;5.83;;;;;;;;;;5069884;28;20183;-80
2023/01/18 03:03:45;;;;;;;16.43;4.63;;;;;;;;;;5069444;28;20183;-80
2023/01/18 03:06:11;;;;;;;31.33;5.73;;;;;;;;;;5072865;28;20227;-80
2023/01/18 03:08:47;;;;;;;17.70;6.50;;;;;;;;;;5072630;28;20217;-80
2023/01/18 03:11:19;;;;;;;54.80;8.00;;;;;;;;;;5070451;28;20224;-80
2023/01/18 03:13:50;;;;;;;21.57;5.53;;;;;;;;;;5062565;28;20181;-80
2023/01/18 03:16:21;;;;;;;75.40;9.13;;;;;;;;;;5058217;28;20282;-80
2023/01/18 03:19:00;;;;;;;136.83;13.10;;;;;;;;;;5063796;28;20316;-80
2023/01/18 03:21:39;;;;;;;106.60;11.20;;;;;;;;;;5064891;28;20276;-79
2023/01/18 03:24:06;;;;;;;90.90;8.83;;;;;;;;;;5066375;28;20183;-79
2023/01/18 03:26:34;;;;;;;4.23;2.73;;;;;;;;;;5065786;28;20242;-80
2023/01/18 03:34:32;;;;;;;16.73;4.20;;;;;;;;;;5074776;28;20193;-80
2023/01/18 03:36:58;;;;;;;9.90;3.63;;;;;;;;;;5065100;28;20198;-80
2023/01/18 03:39:27;;;;;;;5.37;2.13;;;;;;;;;;5061105;28;20183;-80
2023/01/18 03:41:54;;;;;;;2.00;1.43;;;;;;;;;;5067610;28;20177;-80
2023/01/18 03:44:26;;;;;;;3.07;2.33;;;;;;;;;;5061512;28;20258;-80
2023/01/18 03:46:51;;;;;;;10.87;2.47;;;;;;;;;;5066164;28;20244;-80
2023/01/18 03:49:17;;;;;;;2.50;1.83;;;;;;;;;;5067674;28;20253;-80
2023/01/18 03:51:42;;;;;;;4.37;3.40;;;;;;;;;;5068914;28;20190;-80
2023/01/18 03:54:07;;;;;;;7.20;2.53;;;;;;;;;;5065835;28;20182;-80
2023/01/18 03:56:41;;;;;;;6.63;2.03;;;;;;;;;;5065747;28;20185;-80
2023/01/18 03:59:06;;;;;;;34.97;3.87;;;;;;;;;;5067908;28;20267;-80
2023/01/18 04:01:32;;;;;;;5.30;2.63;;;;;;;;;;5066607;28;20183;-80
2023/01/18 04:03:57;;;;;;;7.53;2.53;;;;;;;;;;5064502;28;20182;-80
2023/01/18 04:06:24;;;;;;;22.00;3.17;;;;;;;;;;5056624;28;20267;-80
2023/01/18 04:08:49;;;;;;;60.23;6.23;;;;;;;;;;5077773;28;20224;-80
2023/01/18 04:11:14;;;;;;;48.67;6.23;;;;;;;;;;5064329;28;20177;-80
2023/01/18 04:13:40;;;;;;;4.33;2.33;;;;;;;;;;5083373;28;20257;-80
2023/01/18 04:16:05;;;;;;;30.53;4.63;;;;;;;;;;5061780;28;20178;-80
2023/01/18 04:18:30;;;;;;;5.53;3.27;;;;;;;;;;5073416;28;20209;-80
2023/01/18 04:20:55;;;;;;;2.70;2.50;;;;;;;;;;5059520;28;20200;-80
2023/01/18 04:23:21;;;;;;;2.70;2.50;;;;;;;;;;5069311;28;20178;-80
2023/01/18 04:25:48;;;;;;;2.10;1.77;;;;;;;;;;5066417;28;20179;-80
2023/01/18 04:28:14;;;;;;;3.97;2.60;;;;;;;;;;5077381;28;20246;-80
2023/01/18 04:30:39;;;;;;;38.87;5.43;;;;;;;;;;5082826;28;20201;-80
2023/01/18 04:33:04;;;;;;;34.33;4.47;;;;;;;;;;5066667;28;20283;-80
2023/01/18 04:35:29;;;;;;;17.10;4.03;;;;;;;;;;5068357;28;20233;-80
2023/01/18 04:37:54;;;;;;;27.47;4.27;;;;;;;;;;5063161;28;20320;-80
2023/01/18 04:40:20;;;;;;;5.20;2.50;;;;;;;;;;5069061;28;20186;-80
2023/01/18 04:42:50;;;;;;;5.73;2.90;;;;;;;;;;5068020;28;20253;-80
2023/01/18 04:45:17;;;;;;;3.00;2.70;;;;;;;;;;5063500;28;20207;-80
2023/01/18 04:47:42;;;;;;;11.23;3.40;;;;;;;;;;5076012;28;20305;-80
2023/01/18 04:50:07;;;;;;;3.63;2.57;;;;;;;;;;5064809;28;20178;-80
2023/01/18 04:52:33;;;;;;;18.27;4.17;;;;;;;;;;5064333;28;20780;-80
2023/01/18 04:54:58;;;;;;;7.80;2.60;;;;;;;;;;5072330;28;20266;-79
2023/01/18 04:57:23;;;;;;;8.97;2.37;;;;;;;;;;5066754;28;20229;-80
2023/01/18 04:59:48;;;;;;;7.87;3.57;;;;;;;;;;5079797;28;20250;-80
2023/01/18 05:02:14;;;;;;;11.00;3.97;;;;;;;;;;5064974;28;20184;-80
2023/01/18 05:04:39;;;;;;;30.37;5.20;;;;;;;;;;5065714;28;20181;-80
2023/01/18 05:07:04;;;;;;;4.50;2.07;;;;;;;;;;5079000;28;22157;-80
2023/01/18 05:09:29;;;;;;;5.47;3.40;;;;;;;;;;5063856;28;20211;-80
2023/01/18 05:11:54;;;;;;;2.03;1.83;;;;;;;;;;5068750;28;20173;-80
2023/01/18 05:14:20;;;;;;;3.53;3.23;;;;;;;;;;5070706;28;20192;-80
2023/01/18 05:16:45;;;;;;;4.17;3.03;;;;;;;;;;5063983;28;20183;-80
2023/01/18 05:19:10;;;;;;;4.27;3.03;;;;;;;;;;5067980;28;20181;-80
2023/01/18 05:21:35;;;;;;;2.57;2.37;;;;;;;;;;5066558;28;20174;-80
2023/01/18 05:24:00;;;;;;;3.03;2.30;;;;;;;;;;5064794;28;20183;-80
2023/01/18 05:26:25;;;;;;;2.87;2.67;;;;;;;;;;5068980;28;20202;-80
2023/01/18 05:28:55;;;;;;;3.50;3.20;;;;;;;;;;5071656;28;20209;-80
2023/01/18 05:31:20;;;;;;;1.97;1.73;;;;;;;;;;5064509;28;20177;-80
2023/01/18 05:33:46;;;;;;;1.47;1.37;;;;;;;;;;5068815;28;20189;-80
2023/01/18 05:36:11;;;;;;;2.10;1.90;;;;;;;;;;5069950;28;20220;-80
2023/01/18 05:38:36;;;;;;;3.93;2.70;;;;;;;;;;5071117;28;20229;-80
2023/01/18 05:41:01;;;;;;;5.97;3.53;;;;;;;;;;5059821;28;20182;-79
2023/01/18 05:43:27;;;;;;;3.20;2.90;;;;;;;;;;5066579;28;20207;-79
2023/01/18 05:45:53;;;;;;;3.57;3.27;;;;;;;;;;5060666;28;20186;-80
2023/01/18 05:48:18;;;;;;;3.60;2.27;;;;;;;;;;5065970;28;20214;-80
2023/01/18 05:50:44;;;;;;;2.90;2.63;;;;;;;;;;5068586;28;20202;-79
2023/01/18 05:53:10;;;;;;;3.77;2.80;;;;;;;;;;5077924;28;20185;-79
2023/01/18 05:55:35;;;;;;;4.63;3.30;;;;;;;;;;5071743;28;20266;-79
2023/01/18 05:58:00;;;;;;;4.17;3.37;;;;;;;;;;5073569;28;20202;-80
2023/01/18 06:00:26;;;;;;;4.33;3.90;;;;;;;;;;5063170;28;20211;-78
2023/01/18 06:02:52;;;;;;;3.90;3.43;;;;;;;;;;5074628;28;20225;-78
2023/01/18 06:05:17;;;;;;;4.13;3.53;;;;;;;;;;5063413;28;20187;-78
2023/01/18 06:07:42;;;;;;;4.27;3.77;;;;;;;;;;5066831;28;20199;-78
2023/01/18 06:10:08;;;;;;;3.77;2.93;;;;;;;;;;5067935;28;20189;-78
2023/01/18 06:12:33;;;;;;;3.80;2.47;;;;;;;;;;5062862;28;20178;-78
2023/01/18 06:14:58;;;;;;;3.10;2.80;;;;;;;;;;5058310;28;20178;-78
2023/01/18 06:17:24;;;;;;;3.27;2.07;;;;;;;;;;5076178;28;20172;-78
2023/01/18 06:19:49;;;;;;;4.47;3.00;;;;;;;;;;5052254;28;20196;-78
2023/01/18 06:22:15;;;;;;;4.57;4.10;;;;;;;;;;5054847;28;20183;-78
2023/01/18 06:24:40;;;;;;;2.83;2.30;;;;;;;;;;5062380;28;20243;-78
2023/01/18 06:27:06;;;;;;;4.40;3.60;;;;;;;;;;5074160;28;20202;-78
2023/01/18 06:29:31;;;;;;;5.20;3.77;;;;;;;;;;5053556;28;20182;-78
2023/01/18 06:31:56;;;;;;;3.73;3.43;;;;;;;;;;5056271;28;20182;-78
2023/01/18 06:34:21;;;;;;;4.40;2.07;;;;;;;;;;5063796;28;20182;-77
2023/01/18 06:36:46;;;;;;;4.30;3.57;;;;;;;;;;5053902;28;20203;-78
2023/01/18 06:39:12;;;;;;;3.90;3.50;;;;;;;;;;5059511;28;20181;-78
2023/01/18 06:41:37;;;;;;;4.73;2.83;;;;;;;;;;5059095;28;20268;-78
2023/01/18 06:44:03;;;;;;;5.43;4.13;;;;;;;;;;5066321;28;20177;-78
2023/01/18 06:46:28;;;;;;;4.50;4.10;;;;;;;;;;5057416;28;20186;-78
2023/01/18 06:48:53;;;;;;;3.20;2.90;;;;;;;;;;5063955;28;20202;-78
2023/01/18 06:51:20;;;;;;;2.40;2.17;;;;;;;;;;5058826;28;20250;-78
2023/01/18 06:53:46;;;;;;;1.93;1.77;;;;;;;;;;5059833;28;20269;-78
2023/01/18 06:56:11;;;;;;;6.07;4.83;;;;;;;;;;5064589;28;20272;-77
2023/01/18 06:58:37;;;;;;;4.63;3.97;;;;;;;;;;5064556;28;20192;-78
2023/01/18 07:01:03;;;;;;;5.83;4.43;;;;;;;;;;5057794;28;20197;-77
2023/01/18 07:03:29;;;;;;;6.40;4.40;;;;;;;;;;5061180;28;20177;-77
2023/01/18 07:05:55;;;;;;;4.57;3.97;;;;;;;;;;5066856;28;20177;-77
2023/01/18 07:08:20;;;;;;;4.30;3.90;;;;;;;;;;5051874;28;20234;-77
2023/01/18 07:10:46;;;;;;;4.57;3.33;;;;;;;;;;5058564;28;20182;-77
2023/01/18 07:13:11;;;;;;;4.47;4.07;;;;;;;;;;5070158;28;20178;-77
2023/01/18 07:15:37;;;;;;;4.27;2.80;;;;;;;;;;5067519;28;20178;-77
2023/01/18 07:18:02;;;;;;;5.57;5.03;;;;;;;;;;5071042;28;20196;-77
2023/01/18 07:20:28;;;;;;;6.90;5.70;;;;;;;;;;5064870;28;20180;-77
2023/01/18 07:22:53;;;;;;;3.50;3.20;;;;;;;;;;5062338;28;20173;-77
2023/01/18 07:25:19;;;;;;;6.73;6.03;;;;;;;;;;5064025;28;20209;-77
2023/01/18 07:27:45;;;;;;;6.60;5.80;;;;;;;;;;5063119;28;20199;-77
2023/01/18 07:30:11;;;;;;;5.17;4.03;;;;;;;;;;5067497;28;20217;-78
2023/01/18 07:32:36;;;;;;;6.50;5.57;;;;;;;;;;5068618;28;20204;-77
2023/01/18 07:35:02;;;;;;;4.97;4.47;;;;;;;;;;5071617;28;20178;-77
2023/01/18 07:37:27;;;;;;;7.53;6.73;;;;;;;;;;5084640;28;20561;-77
2023/01/18 07:39:53;;;;;;;6.30;5.17;;;;;;;;;;5057898;28;20178;-77
2023/01/18 07:42:18;;;;;;;7.13;5.30;;;;;;;;;;5066263;28;20185;-77
2023/01/18 07:44:43;;;;;;;5.53;5.00;;;;;;;;;;5056540;28;20187;-77
2023/01/18 07:47:08;;;;;;;5.73;5.03;;;;;;;;;;5063220;28;20230;-77
2023/01/18 07:49:34;;;;;;;7.10;4.63;;;;;;;;;;5077024;28;20182;-77
2023/01/18 07:51:59;;;;;;;4.03;3.50;;;;;;;;;;5067057;28;20184;-77
2023/01/18 07:54:25;;;;;;;6.30;4.63;;;;;;;;;;5066491;28;20185;-77
2023/01/18 07:56:50;;;;;;;6.00;5.40;;;;;;;;;;5079313;28;20169;-77
2023/01/18 07:59:16;;;;;;;6.90;6.20;;;;;;;;;;5065115;28;20235;-77
2023/01/18 08:01:41;;;;;;;25.20;4.77;;;;;;;;;;5064243;28;20190;-77
2023/01/18 08:04:06;;;;;;;6.67;5.63;;;;;;;;;;5059935;28;20177;-77
2023/01/18 08:06:31;;;;;;;8.17;5.27;;;;;;;;;;5063344;28;20186;-78
2023/01/18 08:08:57;;;;;;;6.90;5.80;;;;;;;;;;5057179;28;20201;-77
2023/01/18 08:11:22;;;;;;;8.73;6.20;;;;;;;;;;5064066;28;20190;-77
2023/01/18 08:13:49;;;;;;;3.27;2.97;;;;;;;;;;5062017;28;20204;-79
2023/01/18 08:16:15;;;;;;;3.07;2.77;;;;;;;;;;5067922;28;20265;-78
2023/01/18 08:18:40;;;;;;;3.73;3.37;;;;;;;;;;5059307;28;20264;-78
2023/01/18 08:21:07;;;;;;;6.03;5.40;;;;;;;;;;5064125;28;20181;-78
2023/01/18 08:23:32;;;;;;;7.87;5.23;;;;;;;;;;5069638;28;20200;-79
2023/01/18 08:26:01;;;;;;;5.93;4.90;;;;;;;;;;5067147;28;20178;-78
2023/01/18 08:28:26;;;;;;;3.67;3.27;;;;;;;;;;5066548;28;20299;-78
2023/01/18 08:30:51;;;;;;;5.73;4.00;;;;;;;;;;5071901;28;20272;-78
2023/01/18 08:33:16;;;;;;;5.13;3.87;;;;;;;;;;5072028;28;20205;-78
2023/01/18 08:35:43;;;;;;;3.67;2.77;;;;;;;;;;5078355;28;20224;-78
2023/01/18 08:38:09;;;;;;;3.90;3.27;;;;;;;;;;5067839;28;20229;-78
2023/01/18 08:40:34;;;;;;;4.57;3.83;;;;;;;;;;5074976;28;20188;-78
2023/01/18 08:43:01;;;;;;;5.07;4.20;;;;;;;;;;5073959;28;20191;-78
2023/01/18 08:45:26;;;;;;;5.40;4.50;;;;;;;;;;5077720;28;20249;-78
2023/01/18 08:47:59;;;;;;;2.90;2.33;;;;;;;;;;5069375;28;20197;-78
2023/01/18 08:50:25;;;;;;;3.80;2.90;;;;;;;;;;5070896;28;20181;-78
2023/01/18 08:52:51;;;;;;;2.07;1.80;;;;;;;;;;5075572;28;20166;-78
2023/01/18 08:55:17;;;;;;;4.13;3.73;;;;;;;;;;5074768;28;20206;-78
2023/01/18 08:57:42;;;;;;;2.40;2.20;;;;;;;;;;5072375;28;20213;-78
2023/01/18 09:00:08;;;;;;;2.30;2.10;;;;;;;;;;5064210;28;20275;-78
2023/01/18 09:02:33;;;;;;;3.73;3.27;;;;;;;;;;5074863;28;20169;-78
2023/01/18 09:04:59;;;;;;;3.57;3.00;;;;;;;;;;5079057;28;20189;-78
2023/01/18 09:07:24;;;;;;;3.43;3.13;;;;;;;;;;5065026;28;20288;-78
2023/01/18 09:09:49;;;;;;;2.73;1.97;;;;;;;;;;5092055;28;20171;-78
2023/01/18 09:12:14;;;;;;;2.87;2.30;;;;;;;;;;5066966;28;20258;-78
2023/01/18 09:14:39;;;;;;;2.93;2.57;;;;;;;;;;5090138;28;20181;-78
2023/01/18 09:17:05;;;;;;;4.10;3.70;;;;;;;;;;5068842;28;20169;-78
2023/01/18 09:19:30;;;;;;;4.63;3.90;;;;;;;;;;5068360;28;20271;-78
2023/01/18 09:21:55;;;;;;;3.30;3.00;;;;;;;;;;5065881;28;20178;-78
2023/01/18 09:24:21;;;;;;;4.13;3.23;;;;;;;;;;5084235;28;20565;-79
2023/01/18 09:26:49;;;;;;;4.87;4.47;;;;;;;;;;5069325;28;20181;-78
2023/01/18 09:29:15;;;;;;;4.53;3.73;;;;;;;;;;5073681;28;20286;-78
2023/01/18 09:31:40;;;;;;;5.40;4.27;;;;;;;;;;5088216;28;20259;-78
2023/01/18 09:34:05;;;;;;;2.03;1.87;;;;;;;;;;5069859;28;20177;-78
2023/01/18 09:36:31;;;;;;;3.07;2.60;;;;;;;;;;5075047;28;20218;-78
2023/01/18 09:38:56;;;;;;;4.90;3.20;;;;;;;;;;5075463;28;20235;-78
2023/01/18 09:41:28;;;;;;;3.27;2.90;;;;;;;;;;5069302;28;20183;-79
2023/01/18 09:43:56;;;;;;;3.93;2.40;;;;;;;;;;5072513;28;20178;-79
2023/01/18 09:46:22;;;;;;;4.97;2.90;;;;;;;;;;5078694;28;20175;-78
2023/01/18 09:48:51;;;;;;;3.43;2.93;;;;;;;;;;5064162;28;20212;-78
2023/01/18 09:51:19;;;;;;;3.73;2.67;;;;;;;;;;5065336;28;20182;-78
2023/01/18 09:53:56;;;;;;;4.53;3.40;;;;;;;;;;5068653;28;20218;-78
2023/01/18 09:56:28;;;;;;;3.07;2.00;;;;;;;;;;5072216;28;20220;-78
2023/01/18 09:59:02;;;;;;;4.63;3.10;;;;;;;;;;5072297;28;20179;-79
2023/01/18 10:01:30;;;;;;;4.07;2.73;;;;;;;;;;5073111;28;20270;-79
2023/01/18 10:03:58;;;;;;;3.90;2.13;;;;;;;;;;5077681;28;20188;-79
2023/01/18 10:06:41;;;;;;;6.23;4.17;;;;;;;;;;5078428;28;20183;-79
2023/01/18 10:09:10;;;;;;;27.97;12.10;;;;;;;;;;5082973;28;20201;-79
2023/01/18 10:11:43;;;;;;;5.03;3.77;;;;;;;;;;5077629;28;20181;-79
2023/01/18 10:14:09;;;;;;;5.03;4.40;;;;;;;;;;5068148;28;20195;-79
2023/01/18 10:16:36;;;;;;;7.87;3.77;;;;;;;;;;5070165;28;20173;-79
2023/01/18 10:19:02;;;;;;;5.00;3.67;;;;;;;;;;5067569;28;20184;-78
2023/01/18 10:21:53;;;;;;;5.37;3.93;;;;;;;;;;5071950;28;20174;-79
2023/01/18 10:24:22;;;;;;;2.60;2.40;;;;;;;;;;5053338;28;20230;-78
2023/01/18 10:26:48;;;;;;;4.30;3.33;;;;;;;;;;5072882;28;20260;-78
2023/01/18 10:29:19;;;;;;;4.17;3.57;;;;;;;;;;5066239;28;20210;-79
2023/01/18 10:31:49;;;;;;;5.77;3.33;;;;;;;;;;5065415;28;20165;-79
2023/01/18 10:34:22;;;;;;;2.73;2.47;;;;;;;;;;5066464;28;20190;-79
2023/01/18 10:36:56;;;;;;;4.83;3.23;;;;;;;;;;5068514;28;20201;-79
2023/01/18 10:39:35;;;;;;;5.37;3.10;;;;;;;;;;5072948;28;20178;-79
2023/01/18 10:42:01;;;;;;;4.17;3.57;;;;;;;;;;5082384;28;20180;-79
2023/01/18 10:44:27;;;;;;;3.77;3.27;;;;;;;;;;5064078;28;20189;-79
2023/01/18 10:46:54;;;;;;;2.23;2.03;;;;;;;;;;5071814;28;20169;-79
2023/01/18 10:49:36;;;;;;;6.50;3.53;;;;;;;;;;5069119;28;20201;-79
2023/01/18 10:52:20;;;;;;;2.97;2.67;;;;;;;;;;5068408;28;20180;-79
2023/01/18 10:54:50;;;;;;;6.70;3.77;;;;;;;;;;5067313;28;20178;-79
2023/01/18 10:57:20;;;;;;;4.13;2.37;;;;;;;;;;5085954;28;20178;-79
2023/01/18 10:59:45;;;;;;;3.80;3.17;;;;;;;;;;5068705;28;20183;-79
2023/01/18 11:02:30;;;;;;;4.03;3.20;;;;;;;;;;5067803;28;20178;-79
2023/01/18 11:05:01;;;;;;;4.67;3.43;;;;;;;;;;5064939;28;20337;-79
2023/01/18 11:07:27;;;;;;;5.87;3.70;;;;;;;;;;5068164;28;20209;-79
2023/01/18 11:09:54;;;;;;;3.33;2.67;;;;;;;;;;5068129;28;20182;-79
2023/01/18 11:12:33;;;;;;;6.50;2.80;;;;;;;;;;5077716;28;20371;-79
2023/01/18 11:15:11;;;;;;;4.80;3.37;;;;;;;;;;5073896;28;20215;-79
2023/01/18 11:17:36;;;;;;;3.93;2.93;;;;;;;;;;5073278;28;20350;-79
2023/01/18 11:20:06;;;;;;;5.20;2.73;;;;;;;;;;5071072;28;20265;-79
2023/01/18 11:22:32;;;;;;;3.20;2.97;;;;;;;;;;5070541;28;20199;-79
2023/01/18 11:24:57;;;;;;;3.70;3.27;;;;;;;;;;5066724;28;20551;-79
2023/01/18 11:27:24;;;;;;;6.73;3.83;;;;;;;;;;5063780;28;20237;-79
2023/01/18 11:29:49;;;;;;;4.97;3.40;;;;;;;;;;5077275;28;20181;-79
2023/01/18 11:32:25;;;;;;;8.83;4.07;;;;;;;;;;5062836;28;20180;-79
2023/01/18 11:34:52;;;;;;;6.17;3.50;;;;;;;;;;5065688;28;20175;-79
2023/01/18 11:37:29;;;;;;;6.00;3.50;;;;;;;;;;5077610;28;20220;-79
2023/01/18 11:39:54;;;;;;;4.57;2.77;;;;;;;;;;5062995;28;20186;-79
2023/01/18 11:42:22;;;;;;;9.80;3.53;;;;;;;;;;5073810;28;20174;-79
2023/01/18 11:44:51;;;;;;;4.83;3.83;;;;;;;;;;5065496;28;20176;-79
2023/01/18 11:47:22;;;;;;;5.67;4.27;;;;;;;;;;5068250;28;20178;-79
2023/01/18 11:49:50;;;;;;;6.50;5.77;;;;;;;;;;5065208;28;20180;-79
2023/01/18 11:52:34;;;;;;;5.50;4.13;;;;;;;;;;5068464;28;20169;-79
2023/01/18 11:55:02;;;;;;;2.90;2.33;;;;;;;;;;5069777;28;20186;-79
2023/01/18 11:57:27;;;;;;;2.70;2.30;;;;;;;;;;5067029;28;20177;-79
2023/01/18 11:59:53;;;;;;;2.97;2.40;;;;;;;;;;5061386;28;20285;-79
2023/01/18 12:02:18;;;;;;;3.47;2.57;;;;;;;;;;5076509;28;20208;-79
2023/01/18 12:05:00;;;;;;;5.27;2.83;;;;;;;;;;5066922;28;20232;-79
2023/01/18 12:07:31;;;;;;;2.73;2.20;;;;;;;;;;5068821;28;20206;-79
2023/01/18 12:09:59;;;;;;;5.13;3.87;;;;;;;;;;5069025;28;20182;-79
2023/01/18 12:12:43;;;;;;;4.37;3.00;;;;;;;;;;5065339;28;20200;-79
2023/01/18 12:15:37;;;;;;;4.77;3.23;;;;;;;;;;5077318;28;20273;-79
2023/01/18 12:18:05;;;;;;;4.00;2.80;;;;;;;;;;5010227;28;20190;-79
2023/01/18 12:20:51;;;;;;;2.87;2.67;;;;;;;;;;5066944;28;20178;-79
2023/01/18 12:23:16;;;;;;;3.53;2.80;;;;;;;;;;5062590;28;20212;-79
2023/01/18 12:25:52;;;;;;;2.30;2.10;;;;;;;;;;5069384;28;20187;-79
2023/01/18 12:28:20;;;;;;;3.67;3.23;;;;;;;;;;5071151;28;20240;-79
2023/01/18 12:30:57;;;;;;;6.20;3.00;;;;;;;;;;5070183;28;20168;-79
2023/01/18 12:33:22;;;;;;;10.17;2.73;;;;;;;;;;5076359;28;20186;-79
2023/01/18 12:35:55;;;;;;;7.20;3.73;;;;;;;;;;5062473;28;20230;-79
2023/01/18 12:38:33;;;;;;;2.97;2.20;;;;;;;;;;5075193;28;20316;-79
2023/01/18 12:41:07;;;;;;;1.40;1.30;;;;;;;;;;5061286;28;20186;-80
2023/01/18 12:43:43;;;;;;;4.50;2.57;;;;;;;;;;5069805;28;20230;-79
2023/01/18 12:46:18;;;;;;;3.97;2.93;;;;;;;;;;5078320;28;20184;-79
2023/01/18 12:49:01;;;;;;;3.50;2.60;;;;;;;;;;5068161;28;20229;-79
2023/01/18 12:51:29;;;;;;;3.77;2.70;;;;;;;;;;5080345;28;20177;-79
2023/01/18 12:53:57;;;;;;;3.40;3.03;;;;;;;;;;5064701;28;20197;-79
2023/01/18 12:56:31;;;;;;;3.60;2.37;;;;;;;;;;5063677;28;20192;-79
2023/01/18 12:58:59;;;;;;;3.80;2.97;;;;;;;;;;5066767;28;20273;-79
2023/01/18 13:01:26;;;;;;;4.63;3.10;;;;;;;;;;5069680;28;20181;-79
2023/01/18 13:03:55;;;;;;;7.63;3.27;;;;;;;;;;5068825;28;20182;-79
2023/01/18 13:06:21;;;;;;;4.10;2.70;;;;;;;;;;5069070;28;20174;-79
2023/01/18 13:08:48;;;;;;;5.93;2.83;;;;;;;;;;5067487;28;20253;-79
2023/01/18 13:11:22;;;;;;;3.13;2.10;;;;;;;;;;5066629;28;20181;-79
2023/01/18 13:13:51;;;;;;;6.33;2.60;;;;;;;;;;5074454;28;20176;-79
2023/01/18 13:16:19;;;;;;;3.90;2.60;;;;;;;;;;5067387;28;20267;-79
2023/01/18 13:18:47;;;;;;;3.50;2.77;;;;;;;;;;5066780;28;20267;-79
2023/01/18 13:21:19;;;;;;;3.63;2.80;;;;;;;;;;5076890;28;20176;-79
2023/01/18 13:23:44;;;;;;;5.33;2.63;;;;;;;;;;5061771;28;20231;-79
2023/01/18 13:26:29;;;;;;;5.37;3.17;;;;;;;;;;5066821;28;20200;-79
2023/01/18 13:29:09;;;;;;;3.40;2.90;;;;;;;;;;5075609;28;20212;-79
2023/01/18 13:31:35;;;;;;;3.17;2.80;;;;;;;;;;5081171;28;20263;-79
2023/01/18 13:34:02;;;;;;;8.30;3.50;;;;;;;;;;5072600;28;20217;-79
2023/01/18 13:36:27;;;;;;;3.60;2.70;;;;;;;;;;5067597;28;20567;-79
2023/01/18 13:38:54;;;;;;;3.40;2.83;;;;;;;;;;5066911;28;20320;-79
2023/01/18 13:41:21;;;;;;;3.33;2.53;;;;;;;;;;5073192;28;20182;-79
2023/01/18 13:43:46;;;;;;;3.50;2.63;;;;;;;;;;5073074;28;20181;-79
2023/01/18 13:46:19;;;;;;;4.38;3.00;;;;;;;;;;5074616;28;20487;-79
2023/01/18 13:48:49;;;;;;;6.60;4.33;;;;;;;;;;5075793;28;20207;-79
2023/01/18 13:51:33;;;;;;;3.07;2.73;;;;;;;;;;5066795;28;20195;-79
2023/01/18 13:53:58;;;;;;;4.97;3.00;;;;;;;;;;5072108;28;20177;-79
2023/01/18 13:56:30;;;;;;;4.30;2.80;;;;;;;;;;5082673;28;20463;-79
2023/01/18 13:59:17;;;;;;;5.10;3.10;;;;;;;;;;5072421;28;20243;-79
2023/01/18 14:01:43;;;;;;;5.13;2.93;;;;;;;;;;5056330;28;20193;-79
2023/01/18 14:04:14;;;;;;;8.17;4.17;;;;;;;;;;5063994;28;20182;-79
2023/01/18 14:06:42;;;;;;;5.17;3.40;;;;;;;;;;5090721;28;20177;-79
2023/01/18 14:09:10;;;;;;;5.03;3.87;;;;;;;;;;5080174;28;20278;-78
2023/01/18 14:11:37;;;;;;;4.63;3.27;;;;;;;;;;5071920;28;20178;-79
2023/01/18 14:14:05;;;;;;;4.37;3.10;;;;;;;;;;5069514;28;20174;-79
2023/01/18 14:16:35;;;;;;;4.10;3.03;;;;;;;;;;5068649;28;20201;-79
2023/01/18 14:19:09;;;;;;;6.43;4.97;;;;;;;;;;5064731;28;20182;-79
2023/01/18 14:21:37;;;;;;;5.53;3.60;;;;;;;;;;5068712;28;20205;-78
2023/01/18 14:24:06;;;;;;;5.27;4.30;;;;;;;;;;5067796;28;20190;-79
2023/01/18 14:26:34;;;;;;;4.50;2.90;;;;;;;;;;5086953;28;20205;-79
2023/01/18 14:29:00;;;;;;;5.87;3.10;;;;;;;;;;5079190;28;20204;-79
2023/01/18 14:31:28;;;;;;;3.80;3.33;;;;;;;;;;5075197;28;20191;-79
2023/01/18 14:33:53;;;;;;;4.00;2.80;;;;;;;;;;5058138;28;20192;-80
2023/01/18 14:36:20;;;;;;;3.40;2.93;;;;;;;;;;5064872;28;20193;-80
2023/01/18 14:38:45;;;;;;;6.57;3.23;;;;;;;;;;5065704;28;20227;-80
2023/01/18 14:41:15;;;;;;;4.33;3.27;;;;;;;;;;5058537;28;20191;-80
2023/01/18 14:43:41;;;;;;;10.00;5.93;;;;;;;;;;5063132;28;20243;-80
2023/01/18 14:46:10;;;;;;;8.40;5.00;;;;;;;;;;5067807;28;20181;-80
2023/01/18 14:48:41;;;;;;;3.67;3.07;;;;;;;;;;5068962;28;20201;-80
2023/01/18 14:51:06;;;;;;;3.40;2.80;;;;;;;;;;5064787;28;20228;-80
2023/01/18 14:53:34;;;;;;;3.90;2.87;;;;;;;;;;5068394;28;20216;-80
2023/01/18 14:56:01;;;;;;;4.03;3.30;;;;;;;;;;5065969;28;20223;-80
2023/01/18 14:58:26;;;;;;;4.47;2.97;;;;;;;;;;5074263;28;20264;-80
2023/01/18 15:00:54;;;;;;;4.87;3.13;;;;;;;;;;5070536;28;20216;-80
2023/01/18 15:03:21;;;;;;;3.77;3.10;;;;;;;;;;5062731;28;20226;-81
2023/01/18 15:05:49;;;;;;;4.13;3.33;;;;;;;;;;5067238;28;20181;-80
2023/01/18 15:08:14;;;;;;;5.30;2.90;;;;;;;;;;5062329;28;20200;-80
2023/01/18 15:10:41;;;;;;;5.37;2.97;;;;;;;;;;5068717;28;20177;-80
2023/01/18 15:13:07;;;;;;;4.10;3.23;;;;;;;;;;5071158;28;20263;-80